createdAt,value
2019-03-27T00:03:20.641Z,2.93
2019-03-27T00:08:45.816Z,2.63
2019-03-27T00:14:10.893Z,2.23
2019-03-27T00:19:35.503Z,2.83
2019-03-27T00:25:00.335Z,2.37
2019-03-27T00:30:25.252Z,2.30
2019-03-27T00:35:50.383Z,2.07
2019-03-27T00:41:15.532Z,2.50
2019-03-27T00:46:40.993Z,2.73
2019-03-27T00:52:06.159Z,2.43
2019-03-27T00:57:31.087Z,2.60
2019-03-27T01:02:55.475Z,2.20
2019-03-27T01:08:20.330Z,2.00
2019-03-27T01:13:45.493Z,2.03
2019-03-27T01:19:10.957Z,2.50
2019-03-27T01:24:36.379Z,2.37
2019-03-27T01:30:01.283Z,2.27
2019-03-27T01:35:26.367Z,3.13
2019-03-27T01:40:51.076Z,2.70
2019-03-27T01:46:16.394Z,2.80
2019-03-27T01:51:41.538Z,2.50
2019-03-27T01:57:07.555Z,2.43
2019-03-27T02:02:32.027Z,2.27
2019-03-27T02:07:56.675Z,2.10
2019-03-27T02:13:21.734Z,2.70
2019-03-27T02:18:46.463Z,2.67
2019-03-27T02:24:12.030Z,2.80
2019-03-27T02:29:36.905Z,1.93
2019-03-27T02:35:01.488Z,2.47
2019-03-27T02:40:26.563Z,2.10
2019-03-27T02:45:51.584Z,2.50
2019-03-27T02:51:16.932Z,2.40
2019-03-27T02:56:41.625Z,3.17
2019-03-27T03:02:06.526Z,2.10
2019-03-27T03:07:31.855Z,2.53
2019-03-27T03:12:57.212Z,2.43
2019-03-27T03:18:22.172Z,2.60
2019-03-27T03:23:47.159Z,2.33
2019-03-27T03:29:12.439Z,2.80
2019-03-27T03:34:37.620Z,2.70
2019-03-27T03:40:02.266Z,2.40
2019-03-27T03:45:27.122Z,2.53
2019-03-27T03:50:53.830Z,2.27
2019-03-27T03:56:19.612Z,1.87
2019-03-27T04:01:46.138Z,2.37
2019-03-27T04:07:11.067Z,2.17
2019-03-27T04:12:36.977Z,2.37
2019-03-27T04:18:02.054Z,2.30
2019-03-27T04:23:26.757Z,2.23
2019-03-27T04:28:51.595Z,1.77
2019-03-27T04:34:16.363Z,2.60
2019-03-27T04:39:41.603Z,2.77
2019-03-27T04:45:07.107Z,2.70
2019-03-27T04:50:31.618Z,3.03
2019-03-27T04:55:56.870Z,2.57
2019-03-27T05:01:21.986Z,2.60
2019-03-27T05:06:47.020Z,3.20
2019-03-27T05:12:12.183Z,2.50
2019-03-27T05:17:45.612Z,2.50
2019-03-27T05:23:03.455Z,2.20
2019-03-27T05:28:28.521Z,3.40
2019-03-27T05:33:53.598Z,3.40
2019-03-27T05:39:18.006Z,3.13
2019-03-27T05:44:42.538Z,3.37
2019-03-27T05:50:08.693Z,3.33
2019-03-27T05:55:33.340Z,2.63
2019-03-27T06:00:58.577Z,3.20
2019-03-27T06:06:23.916Z,3.70
2019-03-27T06:11:49.105Z,3.13
2019-03-27T06:17:13.913Z,3.53
2019-03-27T06:22:38.915Z,3.60
2019-03-27T06:28:04.322Z,4.47
2019-03-27T06:33:29.575Z,3.70
2019-03-27T06:38:55.034Z,2.97
2019-03-27T06:44:20.280Z,4.10
2019-03-27T06:49:45.708Z,4.23
2019-03-27T06:55:11.223Z,3.90
2019-03-27T07:00:37.462Z,4.73
2019-03-27T07:06:02.143Z,3.67
2019-03-27T07:11:27.063Z,3.27
2019-03-27T07:16:51.949Z,3.60
2019-03-27T07:22:16.664Z,3.97
2019-03-27T07:27:41.522Z,3.83
2019-03-27T07:33:06.690Z,3.07
2019-03-27T07:38:31.671Z,2.87
2019-03-27T07:43:56.951Z,3.20
2019-03-27T07:49:21.999Z,3.10
2019-03-27T07:54:47.109Z,2.57
2019-03-27T08:00:15.467Z,2.93
2019-03-27T08:05:41.795Z,3.10
2019-03-27T08:11:06.337Z,2.80
2019-03-27T08:16:31.368Z,3.20
2019-03-27T08:21:56.420Z,2.80
2019-03-27T08:27:21.490Z,2.70
2019-03-27T08:32:46.337Z,2.90
2019-03-27T08:38:11.260Z,2.70
2019-03-27T08:43:36.096Z,1.93
2019-03-27T08:49:01.370Z,2.20
2019-03-27T08:54:26.418Z,2.30
2019-03-27T08:59:51.745Z,2.37
2019-03-27T09:05:16.756Z,2.20
2019-03-27T09:10:41.954Z,2.40
2019-03-27T09:16:07.047Z,2.00
2019-03-27T09:21:31.695Z,2.00
2019-03-27T09:26:56.815Z,2.37
2019-03-27T09:32:22.240Z,2.63
2019-03-27T09:37:47.052Z,2.10
2019-03-27T09:43:12.081Z,2.50
2019-03-27T09:48:37.068Z,2.03
2019-03-27T09:54:02.389Z,2.53
2019-03-27T09:59:27.260Z,2.43
2019-03-27T10:04:55.808Z,2.10
2019-03-27T10:10:19.188Z,2.10
2019-03-27T10:15:44.099Z,3.43
2019-03-27T10:21:08.866Z,3.33
2019-03-27T10:26:34.608Z,4.10
2019-03-27T10:31:59.186Z,6.17
2019-03-27T10:37:24.557Z,7.23
2019-03-27T10:42:49.162Z,9.17
2019-03-27T10:48:14.260Z,7.50
2019-03-27T10:53:38.813Z,7.40
2019-03-27T10:59:04.210Z,6.57
2019-03-27T11:04:30.735Z,7.42
2019-03-27T11:09:55.645Z,5.60
2019-03-27T11:15:21.159Z,4.40
2019-03-27T11:20:45.877Z,2.87
2019-03-27T11:26:10.998Z,3.10
2019-03-27T11:31:35.363Z,3.43
2019-03-27T11:37:00.210Z,3.33
2019-03-27T11:42:25.658Z,3.40
2019-03-27T11:47:51.208Z,2.97
2019-03-27T11:53:16.362Z,3.20
2019-03-27T11:58:41.214Z,2.90
2019-03-27T12:04:06.151Z,3.60
2019-03-27T12:09:30.681Z,2.80
2019-03-27T12:14:56.306Z,2.43
2019-03-27T12:20:21.976Z,3.37
2019-03-27T12:25:47.244Z,3.73
2019-03-27T12:31:12.517Z,3.43
2019-03-27T12:36:37.556Z,3.37
2019-03-27T12:42:02.936Z,3.20
2019-03-27T12:47:28.376Z,3.30
2019-03-27T12:52:53.274Z,3.87
2019-03-27T12:58:18.102Z,3.60
2019-03-27T13:03:44.505Z,3.30
2019-03-27T13:09:09.295Z,4.63
2019-03-27T13:14:34.613Z,4.30
2019-03-27T13:19:59.464Z,3.97
2019-03-27T13:25:25.034Z,4.00
2019-03-27T13:30:50.489Z,3.57
2019-03-27T13:36:15.362Z,2.87
2019-03-27T13:41:40.810Z,4.73
2019-03-27T13:47:06.306Z,3.60
2019-03-27T13:52:31.396Z,8.13
2019-03-27T13:57:56.638Z,3.83
2019-03-27T14:03:22.310Z,2.53
2019-03-27T14:08:47.602Z,3.00
2019-03-27T14:14:12.731Z,2.47
2019-03-27T14:19:38.279Z,2.77
2019-03-27T14:25:03.329Z,2.70
2019-03-27T14:30:57.829Z,2.20
2019-03-27T14:36:22.147Z,1.70
2019-03-27T14:41:46.819Z,2.20
2019-03-27T14:47:11.800Z,2.17
2019-03-27T14:52:36.826Z,3.00
2019-03-27T14:58:02.108Z,2.70
2019-03-27T15:03:27.014Z,2.47
2019-03-27T15:08:51.583Z,1.93
2019-03-27T15:14:16.777Z,2.40
2019-03-27T15:19:41.925Z,2.27
2019-03-27T15:25:07.374Z,2.03
2019-03-27T15:30:32.292Z,2.53
2019-03-27T15:35:57.477Z,3.13
2019-03-27T15:41:22.954Z,2.80
2019-03-27T15:46:47.740Z,2.23
2019-03-27T15:52:13.039Z,2.00
2019-03-27T15:57:38.129Z,1.80
2019-03-27T16:03:03.000Z,2.30
2019-03-27T16:08:28.348Z,2.10
2019-03-27T16:13:53.045Z,4.50
2019-03-27T16:19:17.903Z,2.63
2019-03-27T16:24:42.995Z,2.80
2019-03-27T16:30:08.298Z,2.87
2019-03-27T16:35:33.394Z,1.90
2019-03-27T16:40:59.040Z,2.33
2019-03-27T16:46:23.591Z,2.57
2019-03-27T16:51:49.683Z,3.20
2019-03-27T16:57:15.161Z,2.10
2019-03-27T17:02:40.712Z,2.40
2019-03-27T17:08:06.571Z,2.07
2019-03-27T17:13:31.568Z,1.70
2019-03-27T17:18:56.814Z,2.23
2019-03-27T17:24:22.359Z,2.37
2019-03-27T17:29:47.828Z,2.00
2019-03-27T17:35:12.605Z,2.73
2019-03-27T17:40:37.685Z,2.20
2019-03-27T17:46:02.784Z,2.10
2019-03-27T17:51:27.507Z,2.10
2019-03-27T17:56:52.510Z,3.80
2019-03-27T18:02:17.339Z,3.77
2019-03-27T18:07:42.607Z,2.20
2019-03-27T18:13:07.875Z,2.30
2019-03-27T18:18:35.800Z,2.40
2019-03-27T18:24:01.488Z,2.60
2019-03-27T18:29:26.132Z,3.07
2019-03-27T18:34:51.486Z,2.20
2019-03-27T18:40:16.785Z,4.30
2019-03-27T18:45:41.663Z,4.10
2019-03-27T18:51:07.492Z,3.50
2019-03-27T18:56:32.371Z,3.20
2019-03-27T19:01:57.843Z,3.77
2019-03-27T19:07:23.304Z,4.80
2019-03-27T19:12:48.299Z,3.27
2019-03-27T19:18:13.303Z,4.03
2019-03-27T19:23:38.443Z,3.60
2019-03-27T19:29:03.849Z,3.87
2019-03-27T19:34:28.978Z,4.10
2019-03-27T19:39:54.201Z,4.20
2019-03-27T19:45:19.551Z,4.73
2019-03-27T19:50:44.658Z,4.33
2019-03-27T19:56:10.045Z,3.87
2019-03-27T20:01:35.310Z,4.23
2019-03-27T20:07:00.902Z,4.23
2019-03-27T20:12:26.049Z,3.73
2019-03-27T20:17:50.967Z,4.17
2019-03-27T20:23:16.143Z,4.80
2019-03-27T20:28:41.060Z,7.13
2019-03-27T20:34:06.462Z,5.47
2019-03-27T20:39:31.634Z,5.90
2019-03-27T20:44:56.571Z,5.50
2019-03-27T20:50:21.306Z,6.40
2019-03-27T20:55:46.891Z,6.57
2019-03-27T21:01:12.093Z,7.27
2019-03-27T21:06:36.882Z,6.00
2019-03-27T21:12:01.904Z,5.27
2019-03-27T21:17:26.909Z,4.53
2019-03-27T21:22:52.903Z,4.67
2019-03-27T21:28:18.111Z,3.80
2019-03-27T21:33:43.915Z,4.93
2019-03-27T21:39:10.192Z,4.17
2019-03-27T21:44:35.647Z,3.93
2019-03-27T21:50:00.501Z,3.60
2019-03-27T21:55:25.444Z,3.57
2019-03-27T22:00:50.904Z,4.20
2019-03-27T22:06:16.510Z,4.50
2019-03-27T22:11:42.001Z,4.70
2019-03-27T22:17:06.927Z,3.77
2019-03-27T22:22:31.678Z,3.33
2019-03-27T22:27:56.856Z,3.23
2019-03-27T22:33:21.868Z,3.03
2019-03-27T22:38:47.073Z,3.67
2019-03-27T22:44:12.575Z,3.70
2019-03-27T22:49:37.862Z,3.70
2019-03-27T22:55:03.487Z,4.13
2019-03-27T23:00:40.174Z,4.53
2019-03-27T23:06:05.051Z,3.47
2019-03-27T23:11:29.635Z,3.43
2019-03-27T23:16:54.813Z,3.43
2019-03-27T23:22:19.848Z,3.23
2019-03-27T23:27:45.084Z,3.40
2019-03-27T23:33:10.220Z,3.33
2019-03-27T23:38:35.199Z,3.80
2019-03-27T23:44:00.122Z,3.33
2019-03-27T23:49:24.918Z,4.10
2019-03-27T23:54:49.494Z,3.83
